createdAt,value
2019-05-20T00:03:32.829Z,97547.89
2019-05-20T00:08:38.074Z,97548.05
2019-05-20T00:13:43.378Z,97545.19
2019-05-20T00:18:48.606Z,97535.90
2019-05-20T00:23:54.279Z,97534.86
2019-05-20T00:28:59.621Z,97537.13
2019-05-20T00:34:04.952Z,97526.52
2019-05-20T00:39:22.231Z,97528.78
2019-05-20T00:44:27.498Z,97524.98
2019-05-20T00:49:32.738Z,97512.30
2019-05-20T00:54:38.403Z,97520.22
2019-05-20T00:59:43.666Z,97519.54
2019-05-20T01:04:48.951Z,97519.00
2019-05-20T01:09:54.671Z,97515.69
2019-05-20T01:15:00.196Z,97519.25
2019-05-20T01:20:06.521Z,97523.21
2019-05-20T01:25:11.897Z,97514.17
2019-05-20T01:30:18.772Z,97511.58
2019-05-20T01:35:25.102Z,97515.65
2019-05-20T01:40:30.294Z,97510.59
2019-05-20T01:45:35.559Z,97499.81
2019-05-20T01:50:40.820Z,97491.52
2019-05-20T01:55:46.110Z,97502.82
2019-05-20T02:00:51.314Z,97500.69
2019-05-20T02:05:56.581Z,97489.16
2019-05-20T02:11:02.055Z,97489.78
2019-05-20T02:16:08.103Z,97490.46
2019-05-20T02:21:13.430Z,97484.05
2019-05-20T02:26:18.934Z,97464.70
2019-05-20T02:31:24.131Z,97473.45
2019-05-20T02:36:29.406Z,97467.64
2019-05-20T02:41:35.240Z,97469.34
2019-05-20T02:46:40.415Z,97473.55
2019-05-20T02:51:45.808Z,97465.09
2019-05-20T02:56:51.143Z,97459.17
2019-05-20T03:01:56.447Z,97452.22
2019-05-20T03:07:02.722Z,97435.98
2019-05-20T03:12:08.041Z,97440.75
2019-05-20T03:17:13.359Z,97449.41
2019-05-20T03:22:18.594Z,97462.41
2019-05-20T03:27:24.081Z,97453.14
2019-05-20T03:32:29.293Z,97452.77
2019-05-20T03:37:34.622Z,97453.88
2019-05-20T03:42:40.063Z,97454.85
2019-05-20T03:47:45.272Z,97461.45
2019-05-20T03:52:50.589Z,97454.91
2019-05-20T03:57:55.995Z,97456.81
2019-05-20T04:03:01.287Z,97451.17
2019-05-20T04:08:06.532Z,97447.78
2019-05-20T04:13:11.840Z,97452.92
2019-05-20T04:18:17.110Z,97452.34
2019-05-20T04:23:22.496Z,97454.87
2019-05-20T04:28:28.004Z,97445.80
2019-05-20T04:33:33.247Z,97449.15
2019-05-20T04:38:38.678Z,97448.97
2019-05-20T04:43:44.025Z,97454.38
2019-05-20T04:48:49.388Z,97448.51
2019-05-20T04:53:54.595Z,97432.38
2019-05-20T04:59:00.143Z,97425.72
2019-05-20T05:04:05.684Z,97435.03
2019-05-20T05:09:11.071Z,97432.97
2019-05-20T05:14:16.699Z,97429.98
2019-05-20T05:19:22.013Z,97432.37
2019-05-20T05:24:28.834Z,97429.40
2019-05-20T05:29:34.719Z,97429.42
2019-05-20T05:34:40.533Z,97430.28
2019-05-20T05:39:58.575Z,97438.05
2019-05-20T05:45:04.220Z,97437.93
2019-05-20T05:50:11.383Z,97426.30
2019-05-20T05:55:20.035Z,97429.97
2019-05-20T06:00:26.244Z,97409.06
2019-05-20T06:05:32.147Z,97396.77
2019-05-20T06:10:40.343Z,97420.58
2019-05-20T06:15:46.891Z,97416.44
2019-05-20T06:20:52.346Z,97416.89
2019-05-20T06:25:57.595Z,97413.88
2019-05-20T06:31:03.363Z,97412.90
2019-05-20T06:36:09.893Z,97417.75
2019-05-20T06:41:15.411Z,97404.14
2019-05-20T06:46:21.074Z,97414.14
2019-05-20T06:51:30.869Z,97413.78
2019-05-20T06:56:36.187Z,97417.25
2019-05-20T07:01:42.431Z,97426.02
2019-05-20T07:06:48.719Z,97417.98
2019-05-20T07:11:54.136Z,97414.64
2019-05-20T07:17:06.109Z,97414.28
2019-05-20T07:22:12.424Z,97410.95
2019-05-20T07:27:18.082Z,97421.06
2019-05-20T07:32:24.417Z,97420.61
2019-05-20T07:37:30.563Z,97418.69
2019-05-20T07:42:41.625Z,97416.19
2019-05-20T07:47:47.113Z,97410.23
2019-05-20T07:52:53.606Z,97404.66
2019-05-20T07:58:02.594Z,97411.50
2019-05-20T08:03:08.053Z,97408.96
2019-05-20T08:08:14.054Z,97408.87
2019-05-20T08:13:21.681Z,97412.58
2019-05-20T08:18:27.129Z,97398.59
2019-05-20T08:23:32.403Z,97409.77
2019-05-20T08:28:37.861Z,97411.05
2019-05-20T08:33:45.520Z,97413.55
2019-05-20T08:38:50.787Z,97417.83
2019-05-20T08:43:59.143Z,97417.69
2019-05-20T08:49:04.490Z,97423.23
2019-05-20T08:54:10.102Z,97422.30
2019-05-20T08:59:15.502Z,97421.39
2019-05-20T09:04:20.889Z,97424.41
2019-05-20T09:09:27.704Z,97428.50
2019-05-20T09:14:34.474Z,97425.07
2019-05-20T09:19:39.870Z,97435.49
2019-05-20T09:24:46.857Z,97429.14
2019-05-20T09:29:52.392Z,97410.68
2019-05-20T09:34:59.052Z,97418.01
2019-05-20T09:40:07.280Z,97412.39
2019-05-20T09:45:15.177Z,97414.53
2019-05-20T09:50:22.705Z,97420.33
2019-05-20T09:55:29.228Z,97424.95
2019-05-20T10:00:34.765Z,97419.00
2019-05-20T10:05:40.922Z,97408.59
2019-05-20T10:10:46.243Z,97399.91
2019-05-20T10:15:53.291Z,97400.89
2019-05-20T10:20:58.577Z,97400.31
2019-05-20T10:26:04.018Z,97397.62
2019-05-20T10:31:14.553Z,97392.03
2019-05-20T10:36:20.718Z,97390.83
2019-05-20T10:41:29.535Z,97386.78
2019-05-20T10:46:34.105Z,97390.19
2019-05-20T10:51:39.360Z,97400.70
2019-05-20T10:56:44.632Z,97398.75
2019-05-20T11:01:50.177Z,97411.48
2019-05-20T11:06:57.365Z,97413.42
2019-05-20T11:12:03.772Z,97418.05
2019-05-20T11:17:09.277Z,97426.49
2019-05-20T11:22:17.684Z,97431.87
2019-05-20T11:27:23.087Z,97428.42
2019-05-20T11:32:30.247Z,97425.89
2019-05-20T11:37:36.477Z,97419.76
2019-05-20T11:42:41.703Z,97426.88
2019-05-20T11:47:46.995Z,97419.38
2019-05-20T11:52:54.726Z,97420.32
2019-05-20T11:58:15.093Z,97412.42
2019-05-20T12:03:11.117Z,97418.60
2019-05-20T12:08:18.152Z,97411.66
2019-05-20T12:13:25.852Z,97406.09
2019-05-20T12:18:33.536Z,97409.37
2019-05-20T12:23:39.566Z,97400.88
2019-05-20T12:28:45.485Z,97389.72
2019-05-20T12:33:51.285Z,97393.17
2019-05-20T12:39:02.351Z,97384.70
2019-05-20T12:44:29.997Z,97384.16
2019-05-20T12:49:38.566Z,97375.46
2019-05-20T12:55:04.151Z,97373.74
2019-05-20T12:59:59.750Z,97362.78
2019-05-20T13:05:07.621Z,97359.52
2019-05-20T13:10:29.306Z,97358.36
2019-05-20T13:15:23.576Z,97348.76
2019-05-20T13:20:29.058Z,97353.38
2019-05-20T13:25:35.746Z,97346.45
2019-05-20T13:30:44.140Z,97348.95
2019-05-20T13:35:51.349Z,97335.66
2019-05-20T13:40:58.683Z,97356.64
2019-05-20T13:46:06.534Z,97349.11
2019-05-20T13:51:12.728Z,97345.83
2019-05-20T13:56:19.105Z,97345.98
2019-05-20T14:01:25.347Z,97342.72
2019-05-20T14:06:31.289Z,97346.52
2019-05-20T14:11:37.030Z,97349.29
2019-05-20T14:16:44.090Z,97346.00
2019-05-20T14:21:49.711Z,97345.03
2019-05-20T14:26:56.034Z,97372.55
2019-05-20T14:32:01.507Z,97386.27
2019-05-20T14:37:06.939Z,97371.80
2019-05-20T14:42:14.479Z,97369.43
2019-05-20T14:47:20.159Z,97376.23
2019-05-20T14:52:26.185Z,97381.12
2019-05-20T14:57:35.812Z,97359.18
2019-05-20T15:02:42.598Z,97359.42
2019-05-20T15:07:49.363Z,97369.69
2019-05-20T15:12:55.008Z,97378.98
2019-05-20T15:18:02.990Z,97375.91
2019-05-20T15:23:08.407Z,97372.81
2019-05-20T15:28:14.040Z,97377.66
2019-05-20T15:33:19.897Z,97375.27
2019-05-20T15:38:28.840Z,97380.09
2019-05-20T15:43:34.714Z,97371.82
2019-05-20T15:48:40.138Z,97378.37
2019-05-20T15:53:45.481Z,97378.75
2019-05-20T15:58:50.901Z,97375.91
2019-05-20T16:03:57.454Z,97389.16
2019-05-20T16:09:05.530Z,97393.41
2019-05-20T16:14:11.937Z,97396.45
2019-05-20T16:19:17.348Z,97396.34
2019-05-20T16:24:23.297Z,97388.61
2019-05-20T16:29:28.827Z,97388.77
2019-05-20T16:34:34.930Z,97377.97
2019-05-20T16:39:40.275Z,97380.73
2019-05-20T16:44:47.937Z,97381.34
2019-05-20T16:49:54.228Z,97377.66
2019-05-20T16:54:59.838Z,97388.38
2019-05-20T17:00:20.963Z,97377.28
2019-05-20T17:05:17.130Z,97373.50
2019-05-20T17:10:22.852Z,97379.81
2019-05-20T17:15:29.049Z,97378.39
2019-05-20T17:20:37.818Z,97377.80
2019-05-20T17:25:45.605Z,97389.30
2019-05-20T17:30:51.538Z,97379.11
2019-05-20T17:35:57.395Z,97382.14
2019-05-20T17:41:08.803Z,97381.25
2019-05-20T17:46:14.884Z,97385.52
2019-05-20T17:51:22.866Z,97383.25
2019-05-20T17:56:28.598Z,97374.63
2019-05-20T18:01:33.866Z,97373.18
2019-05-20T18:06:41.957Z,97364.52
2019-05-20T18:11:49.369Z,97364.97
2019-05-20T18:16:55.967Z,97364.40
2019-05-20T18:22:04.629Z,97360.30
2019-05-20T18:27:10.213Z,97353.09
2019-05-20T18:32:18.797Z,97351.14
2019-05-20T18:37:26.609Z,97350.94
2019-05-20T18:42:31.999Z,97354.28
2019-05-20T18:47:38.244Z,97349.27
2019-05-20T18:52:43.763Z,97351.95
2019-05-20T18:57:51.706Z,97365.63
2019-05-20T19:02:59.326Z,97372.98
2019-05-20T19:08:05.372Z,97379.91
2019-05-20T19:13:12.760Z,97388.64
2019-05-20T19:18:18.214Z,97401.58
2019-05-20T19:23:24.202Z,97390.75
2019-05-20T19:28:31.657Z,97402.92
2019-05-20T19:33:38.668Z,97418.98
2019-05-20T19:38:44.819Z,97412.63
2019-05-20T19:43:52.130Z,97405.09
2019-05-20T19:48:58.054Z,97417.36
2019-05-20T19:54:05.527Z,97416.05
2019-05-20T19:59:11.778Z,97409.39
2019-05-20T20:04:18.529Z,97407.75
2019-05-20T20:09:27.280Z,97398.30
2019-05-20T20:14:34.642Z,97411.99
2019-05-20T20:19:40.110Z,97396.63
2019-05-20T20:24:47.188Z,97394.44
2019-05-20T20:29:52.710Z,97384.92
2019-05-20T20:34:58.383Z,97389.07
2019-05-20T20:40:04.034Z,97380.50
2019-05-20T20:45:09.492Z,97369.89
2019-05-20T20:50:17.766Z,97371.72
2019-05-20T20:55:24.210Z,97366.39
2019-05-20T21:00:29.700Z,97369.94
2019-05-20T21:05:35.226Z,97375.42
2019-05-20T21:10:40.646Z,97373.45
2019-05-20T21:15:46.175Z,97379.16
2019-05-20T21:20:53.299Z,97374.16
2019-05-20T21:25:58.756Z,97372.55
2019-05-20T21:31:04.169Z,97380.91
2019-05-20T21:36:09.813Z,97395.53
2019-05-20T21:41:15.322Z,97387.03
2019-05-20T21:46:21.871Z,97388.23
2019-05-20T21:51:27.797Z,97396.88
2019-05-20T21:56:33.244Z,97397.45
2019-05-20T22:01:41.309Z,97381.69
2019-05-20T22:06:46.767Z,97400.73
2019-05-20T22:11:52.369Z,97411.92
2019-05-20T22:17:00.006Z,97422.37
2019-05-20T22:22:30.653Z,97427.36
2019-05-20T22:27:37.380Z,97429.02
2019-05-20T22:32:43.913Z,97427.39
2019-05-20T22:37:50.488Z,97425.55
2019-05-20T22:42:55.905Z,97432.70
2019-05-20T22:48:01.300Z,97425.37
2019-05-20T22:53:06.904Z,97435.70
2019-05-20T22:58:12.208Z,97442.79
2019-05-20T23:03:17.575Z,97435.63
2019-05-20T23:08:23.240Z,97430.20
2019-05-20T23:13:28.688Z,97430.56
2019-05-20T23:18:34.144Z,97423.36
2019-05-20T23:23:39.553Z,97415.02
2019-05-20T23:28:45.389Z,97416.87
2019-05-20T23:33:50.662Z,97418.11
2019-05-20T23:38:56.246Z,97415.91
2019-05-20T23:44:02.096Z,97423.33
2019-05-20T23:49:07.615Z,97423.88
2019-05-20T23:54:17.111Z,97417.50
2019-05-20T23:59:23.167Z,97415.45
